sensor_id;sensor_type;location;lat;lon;timestamp;P1;durP1;ratioP1;P2;durP2;ratioP2
47725;SDS011;33483;48.294;16.388;2022-10-16T00:01:07;120.07;;;64.07;;
47725;SDS011;33483;48.294;16.388;2022-10-16T00:03:38;99.07;;;57.88;;
47725;SDS011;33483;48.294;16.388;2022-10-16T00:06:06;112.97;;;63.53;;
47725;SDS011;33483;48.294;16.388;2022-10-16T00:08:34;123.38;;;65.07;;
47725;SDS011;33483;48.294;16.388;2022-10-16T00:13:32;111.50;;;61.53;;
47725;SDS011;33483;48.294;16.388;2022-10-16T00:16:00;94.75;;;54.08;;
47725;SDS011;33483;48.294;16.388;2022-10-16T00:18:28;110.72;;;57.50;;
47725;SDS011;33483;48.294;16.388;2022-10-16T00:21:01;102.22;;;54.63;;
47725;SDS011;33483;48.294;16.388;2022-10-16T00:23:29;98.78;;;59.00;;
47725;SDS011;33483;48.294;16.388;2022-10-16T00:25:57;98.72;;;57.38;;
47725;SDS011;33483;48.294;16.388;2022-10-16T00:28:27;112.15;;;61.08;;
47725;SDS011;33483;48.294;16.388;2022-10-16T00:30:57;119.32;;;62.58;;
47725;SDS011;33483;48.294;16.388;2022-10-16T00:33:28;190.30;;;69.50;;
47725;SDS011;33483;48.294;16.388;2022-10-16T00:35:57;164.63;;;63.92;;
47725;SDS011;33483;48.294;16.388;2022-10-16T00:38:29;173.73;;;62.10;;
47725;SDS011;33483;48.294;16.388;2022-10-16T00:40:59;129.18;;;62.20;;
47725;SDS011;33483;48.294;16.388;2022-10-16T00:48:59;171.60;;;58.72;;
47725;SDS011;33483;48.294;16.388;2022-10-16T00:51:30;183.43;;;63.47;;
47725;SDS011;33483;48.294;16.388;2022-10-16T00:54:02;114.15;;;55.15;;
47725;SDS011;33483;48.294;16.388;2022-10-16T00:56:33;109.72;;;54.28;;
47725;SDS011;33483;48.294;16.388;2022-10-16T00:59:01;106.10;;;55.33;;
47725;SDS011;33483;48.294;16.388;2022-10-16T01:01:34;166.73;;;60.42;;
47725;SDS011;33483;48.294;16.388;2022-10-16T01:04:01;194.18;;;61.20;;
47725;SDS011;33483;48.294;16.388;2022-10-16T01:06:34;132.70;;;59.45;;
47725;SDS011;33483;48.294;16.388;2022-10-16T01:09:25;161.82;;;58.92;;
47725;SDS011;33483;48.294;16.388;2022-10-16T01:14:59;206.15;;;65.47;;
47725;SDS011;33483;48.294;16.388;2022-10-16T01:17:35;186.35;;;65.00;;
47725;SDS011;33483;48.294;16.388;2022-10-16T01:20:10;173.98;;;63.00;;
47725;SDS011;33483;48.294;16.388;2022-10-16T01:25:31;134.82;;;61.58;;
47725;SDS011;33483;48.294;16.388;2022-10-16T01:28:14;149.43;;;62.17;;
47725;SDS011;33483;48.294;16.388;2022-10-16T01:30:44;124.40;;;62.25;;
47725;SDS011;33483;48.294;16.388;2022-10-16T01:33:16;125.75;;;62.65;;
47725;SDS011;33483;48.294;16.388;2022-10-16T01:35:52;116.38;;;61.30;;
47725;SDS011;33483;48.294;16.388;2022-10-16T01:38:30;135.00;;;65.28;;
47725;SDS011;33483;48.294;16.388;2022-10-16T01:41:04;116.85;;;62.83;;
47725;SDS011;33483;48.294;16.388;2022-10-16T01:43:37;134.60;;;66.10;;
47725;SDS011;33483;48.294;16.388;2022-10-16T01:46:09;112.85;;;63.92;;
47725;SDS011;33483;48.294;16.388;2022-10-16T01:48:37;104.53;;;63.53;;
47725;SDS011;33483;48.294;16.388;2022-10-16T01:51:07;117.70;;;65.70;;
47725;SDS011;33483;48.294;16.388;2022-10-16T01:53:39;105.07;;;63.13;;
47725;SDS011;33483;48.294;16.388;2022-10-16T01:56:09;138.65;;;62.42;;
47725;SDS011;33483;48.294;16.388;2022-10-16T01:58:47;109.68;;;62.78;;
47725;SDS011;33483;48.294;16.388;2022-10-16T02:01:18;157.55;;;59.60;;
47725;SDS011;33483;48.294;16.388;2022-10-16T02:03:51;122.88;;;63.50;;
47725;SDS011;33483;48.294;16.388;2022-10-16T02:06:22;123.20;;;60.60;;
47725;SDS011;33483;48.294;16.388;2022-10-16T02:08:49;116.53;;;57.80;;
47725;SDS011;33483;48.294;16.388;2022-10-16T02:11:17;104.40;;;59.20;;
47725;SDS011;33483;48.294;16.388;2022-10-16T02:13:45;96.05;;;59.45;;
47725;SDS011;33483;48.294;16.388;2022-10-16T02:16:15;112.00;;;59.58;;
47725;SDS011;33483;48.294;16.388;2022-10-16T02:18:42;91.95;;;56.00;;
47725;SDS011;33483;48.294;16.388;2022-10-16T02:21:13;107.35;;;61.05;;
47725;SDS011;33483;48.294;16.388;2022-10-16T02:23:48;130.15;;;61.92;;
47725;SDS011;33483;48.294;16.388;2022-10-16T02:29:32;124.07;;;60.17;;
47725;SDS011;33483;48.294;16.388;2022-10-16T02:32:04;99.03;;;59.38;;
47725;SDS011;33483;48.294;16.388;2022-10-16T02:34:35;97.60;;;59.25;;
47725;SDS011;33483;48.294;16.388;2022-10-16T02:37:04;105.55;;;61.30;;
47725;SDS011;33483;48.294;16.388;2022-10-16T02:39:32;92.53;;;59.35;;
47725;SDS011;33483;48.294;16.388;2022-10-16T02:42:02;97.18;;;61.38;;
47725;SDS011;33483;48.294;16.388;2022-10-16T02:44:31;98.80;;;60.97;;
47725;SDS011;33483;48.294;16.388;2022-10-16T02:46:58;103.70;;;62.35;;
47725;SDS011;33483;48.294;16.388;2022-10-16T02:49:25;103.90;;;62.25;;
47725;SDS011;33483;48.294;16.388;2022-10-16T02:51:52;93.22;;;57.25;;
47725;SDS011;33483;48.294;16.388;2022-10-16T02:54:19;105.68;;;59.08;;
47725;SDS011;33483;48.294;16.388;2022-10-16T02:56:46;96.32;;;55.88;;
47725;SDS011;33483;48.294;16.388;2022-10-16T02:59:13;104.32;;;55.30;;
47725;SDS011;33483;48.294;16.388;2022-10-16T03:01:43;101.60;;;58.28;;
47725;SDS011;33483;48.294;16.388;2022-10-16T03:04:10;118.32;;;65.65;;
47725;SDS011;33483;48.294;16.388;2022-10-16T03:06:38;169.18;;;65.57;;
47725;SDS011;33483;48.294;16.388;2022-10-16T03:09:04;117.38;;;62.63;;
47725;SDS011;33483;48.294;16.388;2022-10-16T03:11:31;156.77;;;59.25;;
47725;SDS011;33483;48.294;16.388;2022-10-16T03:14:00;112.82;;;55.40;;
47725;SDS011;33483;48.294;16.388;2022-10-16T03:16:28;237.45;;;56.78;;
47725;SDS011;33483;48.294;16.388;2022-10-16T03:18:54;193.20;;;57.53;;
47725;SDS011;33483;48.294;16.388;2022-10-16T03:21:22;184.38;;;58.92;;
47725;SDS011;33483;48.294;16.388;2022-10-16T03:23:49;130.70;;;56.40;;
47725;SDS011;33483;48.294;16.388;2022-10-16T03:26:16;103.35;;;58.83;;
47725;SDS011;33483;48.294;16.388;2022-10-16T03:28:43;91.40;;;56.03;;
47725;SDS011;33483;48.294;16.388;2022-10-16T03:31:10;118.93;;;57.88;;
47725;SDS011;33483;48.294;16.388;2022-10-16T03:33:37;131.38;;;58.47;;
47725;SDS011;33483;48.294;16.388;2022-10-16T03:36:04;87.80;;;55.08;;
47725;SDS011;33483;48.294;16.388;2022-10-16T03:38:31;102.35;;;56.90;;
47725;SDS011;33483;48.294;16.388;2022-10-16T03:40:58;97.25;;;54.63;;
47725;SDS011;33483;48.294;16.388;2022-10-16T03:43:25;188.90;;;58.25;;
47725;SDS011;33483;48.294;16.388;2022-10-16T03:45:52;195.52;;;64.90;;
47725;SDS011;33483;48.294;16.388;2022-10-16T03:48:19;98.97;;;53.90;;
47725;SDS011;33483;48.294;16.388;2022-10-16T03:50:46;187.52;;;60.38;;
47725;SDS011;33483;48.294;16.388;2022-10-16T03:53:14;207.30;;;57.20;;
47725;SDS011;33483;48.294;16.388;2022-10-16T03:55:42;86.22;;;53.78;;
47725;SDS011;33483;48.294;16.388;2022-10-16T03:58:10;79.25;;;51.10;;
47725;SDS011;33483;48.294;16.388;2022-10-16T04:00:41;106.88;;;53.05;;
47725;SDS011;33483;48.294;16.388;2022-10-16T04:03:11;93.38;;;52.30;;
47725;SDS011;33483;48.294;16.388;2022-10-16T04:05:38;102.72;;;55.42;;
47725;SDS011;33483;48.294;16.388;2022-10-16T04:08:06;93.05;;;53.08;;
47725;SDS011;33483;48.294;16.388;2022-10-16T04:10:33;73.20;;;50.10;;
47725;SDS011;33483;48.294;16.388;2022-10-16T04:13:03;80.38;;;51.95;;
47725;SDS011;33483;48.294;16.388;2022-10-16T04:15:30;136.07;;;57.50;;
47725;SDS011;33483;48.294;16.388;2022-10-16T04:17:57;151.80;;;59.08;;
47725;SDS011;33483;48.294;16.388;2022-10-16T04:20:24;81.68;;;54.13;;
47725;SDS011;33483;48.294;16.388;2022-10-16T04:22:51;102.25;;;60.08;;
47725;SDS011;33483;48.294;16.388;2022-10-16T04:25:18;94.95;;;59.88;;
47725;SDS011;33483;48.294;16.388;2022-10-16T04:27:45;99.82;;;58.10;;
47725;SDS011;33483;48.294;16.388;2022-10-16T04:30:15;88.43;;;57.97;;
47725;SDS011;33483;48.294;16.388;2022-10-16T04:32:42;103.60;;;61.65;;
47725;SDS011;33483;48.294;16.388;2022-10-16T04:35:09;103.75;;;59.78;;
47725;SDS011;33483;48.294;16.388;2022-10-16T04:37:36;122.05;;;65.80;;
47725;SDS011;33483;48.294;16.388;2022-10-16T04:40:03;104.93;;;61.85;;
47725;SDS011;33483;48.294;16.388;2022-10-16T04:42:30;111.75;;;62.58;;
47725;SDS011;33483;48.294;16.388;2022-10-16T04:45:00;104.45;;;59.47;;
47725;SDS011;33483;48.294;16.388;2022-10-16T04:47:27;135.80;;;70.00;;
47725;SDS011;33483;48.294;16.388;2022-10-16T04:49:54;110.63;;;66.07;;
47725;SDS011;33483;48.294;16.388;2022-10-16T04:52:23;118.45;;;66.00;;
47725;SDS011;33483;48.294;16.388;2022-10-16T04:54:51;119.25;;;67.30;;
47725;SDS011;33483;48.294;16.388;2022-10-16T04:57:18;120.65;;;68.13;;
47725;SDS011;33483;48.294;16.388;2022-10-16T04:59:45;163.75;;;67.32;;
47725;SDS011;33483;48.294;16.388;2022-10-16T05:02:12;122.00;;;66.22;;
47725;SDS011;33483;48.294;16.388;2022-10-16T05:04:42;119.32;;;64.22;;
47725;SDS011;33483;48.294;16.388;2022-10-16T05:07:11;131.10;;;63.65;;
47725;SDS011;33483;48.294;16.388;2022-10-16T05:09:41;112.32;;;59.40;;
47725;SDS011;33483;48.294;16.388;2022-10-16T05:12:08;131.43;;;60.25;;
47725;SDS011;33483;48.294;16.388;2022-10-16T05:14:37;301.02;;;65.97;;
47725;SDS011;33483;48.294;16.388;2022-10-16T05:17:04;162.70;;;63.92;;
47725;SDS011;33483;48.294;16.388;2022-10-16T05:19:31;232.73;;;66.72;;
47725;SDS011;33483;48.294;16.388;2022-10-16T05:21:58;208.25;;;62.85;;
47725;SDS011;33483;48.294;16.388;2022-10-16T05:24:26;306.88;;;71.30;;
47725;SDS011;33483;48.294;16.388;2022-10-16T05:26:53;182.32;;;63.30;;
47725;SDS011;33483;48.294;16.388;2022-10-16T05:29:20;183.00;;;64.45;;
47725;SDS011;33483;48.294;16.388;2022-10-16T05:31:49;180.88;;;62.53;;
47725;SDS011;33483;48.294;16.388;2022-10-16T05:34:20;122.45;;;62.53;;
47725;SDS011;33483;48.294;16.388;2022-10-16T05:36:47;151.05;;;65.38;;
47725;SDS011;33483;48.294;16.388;2022-10-16T05:39:15;125.40;;;62.63;;
47725;SDS011;33483;48.294;16.388;2022-10-16T05:41:42;121.72;;;69.18;;
47725;SDS011;33483;48.294;16.388;2022-10-16T05:44:13;108.50;;;65.93;;
47725;SDS011;33483;48.294;16.388;2022-10-16T05:46:40;109.45;;;66.20;;
47725;SDS011;33483;48.294;16.388;2022-10-16T05:49:09;113.32;;;65.10;;
47725;SDS011;33483;48.294;16.388;2022-10-16T05:51:38;123.85;;;68.20;;
47725;SDS011;33483;48.294;16.388;2022-10-16T05:54:06;120.85;;;66.38;;
47725;SDS011;33483;48.294;16.388;2022-10-16T05:56:33;113.75;;;65.63;;
47725;SDS011;33483;48.294;16.388;2022-10-16T05:59:00;118.10;;;69.18;;
47725;SDS011;33483;48.294;16.388;2022-10-16T06:01:29;144.63;;;70.53;;
47725;SDS011;33483;48.294;16.388;2022-10-16T06:03:58;231.30;;;82.13;;
47725;SDS011;33483;48.294;16.388;2022-10-16T06:06:25;210.40;;;83.63;;
47725;SDS011;33483;48.294;16.388;2022-10-16T06:08:55;236.88;;;83.55;;
47725;SDS011;33483;48.294;16.388;2022-10-16T06:11:24;230.55;;;87.78;;
47725;SDS011;33483;48.294;16.388;2022-10-16T06:13:53;318.02;;;94.35;;
47725;SDS011;33483;48.294;16.388;2022-10-16T06:16:23;271.67;;;91.15;;
47725;SDS011;33483;48.294;16.388;2022-10-16T06:18:52;286.23;;;87.78;;
47725;SDS011;33483;48.294;16.388;2022-10-16T06:21:23;401.63;;;88.15;;
47725;SDS011;33483;48.294;16.388;2022-10-16T06:23:52;310.05;;;86.93;;
47725;SDS011;33483;48.294;16.388;2022-10-16T06:26:21;269.77;;;82.55;;
47725;SDS011;33483;48.294;16.388;2022-10-16T06:28:50;272.00;;;84.38;;
47725;SDS011;33483;48.294;16.388;2022-10-16T06:31:17;270.70;;;82.40;;
47725;SDS011;33483;48.294;16.388;2022-10-16T06:33:44;283.73;;;79.95;;
47725;SDS011;33483;48.294;16.388;2022-10-16T06:36:15;267.20;;;77.68;;
47725;SDS011;33483;48.294;16.388;2022-10-16T06:38:43;308.10;;;81.93;;
47725;SDS011;33483;48.294;16.388;2022-10-16T06:41:12;225.25;;;79.22;;
47725;SDS011;33483;48.294;16.388;2022-10-16T06:43:46;277.35;;;79.03;;
47725;SDS011;33483;48.294;16.388;2022-10-16T06:46:15;197.15;;;79.85;;
47725;SDS011;33483;48.294;16.388;2022-10-16T06:48:44;233.63;;;80.38;;
47725;SDS011;33483;48.294;16.388;2022-10-16T06:51:13;218.68;;;77.95;;
47725;SDS011;33483;48.294;16.388;2022-10-16T06:53:45;235.73;;;77.10;;
47725;SDS011;33483;48.294;16.388;2022-10-16T06:56:29;254.82;;;79.47;;
47725;SDS011;33483;48.294;16.388;2022-10-16T06:58:58;197.90;;;79.35;;
47725;SDS011;33483;48.294;16.388;2022-10-16T07:01:28;259.25;;;78.60;;
47725;SDS011;33483;48.294;16.388;2022-10-16T07:03:55;254.85;;;79.80;;
47725;SDS011;33483;48.294;16.388;2022-10-16T07:06:23;221.02;;;75.63;;
47725;SDS011;33483;48.294;16.388;2022-10-16T07:08:51;260.85;;;79.38;;
47725;SDS011;33483;48.294;16.388;2022-10-16T07:11:20;250.63;;;78.40;;
47725;SDS011;33483;48.294;16.388;2022-10-16T07:13:50;196.13;;;75.55;;
47725;SDS011;33483;48.294;16.388;2022-10-16T07:16:23;191.80;;;76.28;;
47725;SDS011;33483;48.294;16.388;2022-10-16T07:18:53;176.52;;;75.45;;
47725;SDS011;33483;48.294;16.388;2022-10-16T07:21:26;198.20;;;77.22;;
47725;SDS011;33483;48.294;16.388;2022-10-16T07:23:56;190.50;;;77.88;;
47725;SDS011;33483;48.294;16.388;2022-10-16T07:26:25;197.23;;;79.60;;
47725;SDS011;33483;48.294;16.388;2022-10-16T07:28:53;193.73;;;79.60;;
47725;SDS011;33483;48.294;16.388;2022-10-16T07:31:20;199.93;;;87.13;;
47725;SDS011;33483;48.294;16.388;2022-10-16T07:33:48;206.32;;;76.38;;
47725;SDS011;33483;48.294;16.388;2022-10-16T07:36:16;197.13;;;78.40;;
47725;SDS011;33483;48.294;16.388;2022-10-16T07:38:48;207.82;;;78.30;;
47725;SDS011;33483;48.294;16.388;2022-10-16T07:41:23;203.45;;;79.07;;
47725;SDS011;33483;48.294;16.388;2022-10-16T07:43:51;195.15;;;80.45;;
47725;SDS011;33483;48.294;16.388;2022-10-16T07:46:20;223.45;;;79.03;;
47725;SDS011;33483;48.294;16.388;2022-10-16T07:48:49;208.93;;;80.28;;
47725;SDS011;33483;48.294;16.388;2022-10-16T07:51:22;231.65;;;85.43;;
47725;SDS011;33483;48.294;16.388;2022-10-16T07:53:50;242.48;;;83.68;;
47725;SDS011;33483;48.294;16.388;2022-10-16T07:56:18;221.18;;;84.95;;
47725;SDS011;33483;48.294;16.388;2022-10-16T07:58:46;209.43;;;83.00;;
47725;SDS011;33483;48.294;16.388;2022-10-16T08:01:16;209.10;;;85.85;;
47725;SDS011;33483;48.294;16.388;2022-10-16T08:03:44;210.48;;;86.70;;
47725;SDS011;33483;48.294;16.388;2022-10-16T08:06:12;229.02;;;85.93;;
47725;SDS011;33483;48.294;16.388;2022-10-16T08:08:40;195.10;;;82.70;;
47725;SDS011;33483;48.294;16.388;2022-10-16T08:11:07;213.90;;;86.13;;
47725;SDS011;33483;48.294;16.388;2022-10-16T08:13:35;195.45;;;84.75;;
47725;SDS011;33483;48.294;16.388;2022-10-16T08:16:02;200.70;;;83.53;;
47725;SDS011;33483;48.294;16.388;2022-10-16T08:18:35;192.27;;;83.47;;
47725;SDS011;33483;48.294;16.388;2022-10-16T08:21:03;184.68;;;82.32;;
47725;SDS011;33483;48.294;16.388;2022-10-16T08:23:31;181.23;;;78.30;;
47725;SDS011;33483;48.294;16.388;2022-10-16T08:26:04;182.45;;;80.40;;
47725;SDS011;33483;48.294;16.388;2022-10-16T08:28:33;163.70;;;77.63;;
47725;SDS011;33483;48.294;16.388;2022-10-16T08:31:05;185.45;;;79.97;;
47725;SDS011;33483;48.294;16.388;2022-10-16T08:33:41;173.07;;;78.78;;
47725;SDS011;33483;48.294;16.388;2022-10-16T08:36:10;170.85;;;74.07;;
47725;SDS011;33483;48.294;16.388;2022-10-16T08:38:40;180.90;;;75.75;;
47725;SDS011;33483;48.294;16.388;2022-10-16T08:43:59;166.48;;;75.90;;
47725;SDS011;33483;48.294;16.388;2022-10-16T08:49:22;159.70;;;71.78;;
47725;SDS011;33483;48.294;16.388;2022-10-16T08:51:55;152.55;;;73.90;;
47725;SDS011;33483;48.294;16.388;2022-10-16T08:54:31;157.18;;;76.70;;
47725;SDS011;33483;48.294;16.388;2022-10-16T08:57:14;151.95;;;75.00;;
47725;SDS011;33483;48.294;16.388;2022-10-16T08:59:49;147.98;;;75.40;;
47725;SDS011;33483;48.294;16.388;2022-10-16T09:02:24;139.43;;;74.25;;
47725;SDS011;33483;48.294;16.388;2022-10-16T09:07:39;129.02;;;72.82;;
47725;SDS011;33483;48.294;16.388;2022-10-16T09:15:58;116.82;;;69.28;;
47725;SDS011;33483;48.294;16.388;2022-10-16T09:18:58;120.78;;;70.50;;
47725;SDS011;33483;48.294;16.388;2022-10-16T09:21:34;121.20;;;70.45;;
47725;SDS011;33483;48.294;16.388;2022-10-16T09:24:16;119.10;;;69.27;;
47725;SDS011;33483;48.294;16.388;2022-10-16T09:26:44;119.38;;;70.45;;
47725;SDS011;33483;48.294;16.388;2022-10-16T09:29:14;115.80;;;71.63;;
47725;SDS011;33483;48.294;16.388;2022-10-16T09:31:43;111.43;;;70.18;;
47725;SDS011;33483;48.294;16.388;2022-10-16T09:34:32;109.32;;;70.45;;
47725;SDS011;33483;48.294;16.388;2022-10-16T09:37:05;107.97;;;66.28;;
47725;SDS011;33483;48.294;16.388;2022-10-16T09:39:46;105.75;;;66.10;;
47725;SDS011;33483;48.294;16.388;2022-10-16T09:42:26;97.55;;;61.92;;
47725;SDS011;33483;48.294;16.388;2022-10-16T09:44:58;105.22;;;63.58;;
47725;SDS011;33483;48.294;16.388;2022-10-16T09:47:26;107.93;;;68.25;;
47725;SDS011;33483;48.294;16.388;2022-10-16T09:49:58;102.25;;;67.20;;
47725;SDS011;33483;48.294;16.388;2022-10-16T09:52:29;104.40;;;66.28;;
47725;SDS011;33483;48.294;16.388;2022-10-16T09:55:12;99.57;;;64.60;;
47725;SDS011;33483;48.294;16.388;2022-10-16T09:57:50;99.60;;;62.28;;
47725;SDS011;33483;48.294;16.388;2022-10-16T10:00:18;92.32;;;61.38;;
47725;SDS011;33483;48.294;16.388;2022-10-16T10:02:46;88.35;;;57.97;;
47725;SDS011;33483;48.294;16.388;2022-10-16T10:05:21;89.20;;;57.08;;
47725;SDS011;33483;48.294;16.388;2022-10-16T10:07:54;89.28;;;57.70;;
47725;SDS011;33483;48.294;16.388;2022-10-16T10:10:38;82.55;;;55.92;;
47725;SDS011;33483;48.294;16.388;2022-10-16T10:13:19;82.30;;;54.03;;
47725;SDS011;33483;48.294;16.388;2022-10-16T10:15:48;86.30;;;55.42;;
47725;SDS011;33483;48.294;16.388;2022-10-16T10:18:19;86.60;;;55.90;;
47725;SDS011;33483;48.294;16.388;2022-10-16T10:20:59;82.18;;;52.65;;
47725;SDS011;33483;48.294;16.388;2022-10-16T10:23:29;85.40;;;53.80;;
47725;SDS011;33483;48.294;16.388;2022-10-16T10:26:05;84.75;;;54.17;;
47725;SDS011;33483;48.294;16.388;2022-10-16T10:36:40;76.93;;;50.50;;
47725;SDS011;33483;48.294;16.388;2022-10-16T10:39:16;73.10;;;50.00;;
47725;SDS011;33483;48.294;16.388;2022-10-16T10:47:47;64.60;;;44.50;;
47725;SDS011;33483;48.294;16.388;2022-10-16T10:58:24;58.63;;;41.10;;
47725;SDS011;33483;48.294;16.388;2022-10-16T11:01:08;61.45;;;43.28;;
47725;SDS011;33483;48.294;16.388;2022-10-16T11:06:34;53.08;;;39.60;;
47725;SDS011;33483;48.294;16.388;2022-10-16T11:09:14;56.17;;;40.45;;
47725;SDS011;33483;48.294;16.388;2022-10-16T11:11:47;56.50;;;40.03;;
47725;SDS011;33483;48.294;16.388;2022-10-16T11:14:40;59.20;;;38.53;;
47725;SDS011;33483;48.294;16.388;2022-10-16T11:17:25;54.67;;;38.78;;
47725;SDS011;33483;48.294;16.388;2022-10-16T11:25:39;49.00;;;34.95;;
47725;SDS011;33483;48.294;16.388;2022-10-16T11:41:23;55.63;;;37.22;;
47725;SDS011;33483;48.294;16.388;2022-10-16T11:47:09;49.50;;;36.38;;
47725;SDS011;33483;48.294;16.388;2022-10-16T11:55:40;49.50;;;38.38;;
47725;SDS011;33483;48.294;16.388;2022-10-16T11:58:19;47.22;;;36.20;;
47725;SDS011;33483;48.294;16.388;2022-10-16T12:03:48;53.13;;;37.05;;
47725;SDS011;33483;48.294;16.388;2022-10-16T12:09:02;48.35;;;35.38;;
47725;SDS011;33483;48.294;16.388;2022-10-16T12:11:35;48.35;;;36.45;;
47725;SDS011;33483;48.294;16.388;2022-10-16T12:14:05;51.22;;;36.90;;
47725;SDS011;33483;48.294;16.388;2022-10-16T12:16:50;48.63;;;37.08;;
47725;SDS011;33483;48.294;16.388;2022-10-16T12:19:19;48.45;;;35.92;;
47725;SDS011;33483;48.294;16.388;2022-10-16T12:21:47;52.10;;;35.80;;
47725;SDS011;33483;48.294;16.388;2022-10-16T12:24:33;50.60;;;36.45;;
47725;SDS011;33483;48.294;16.388;2022-10-16T12:27:04;47.15;;;35.45;;
47725;SDS011;33483;48.294;16.388;2022-10-16T12:29:40;45.83;;;35.58;;
47725;SDS011;33483;48.294;16.388;2022-10-16T12:35:28;43.53;;;33.92;;
47725;SDS011;33483;48.294;16.388;2022-10-16T12:38:05;44.65;;;33.05;;
47725;SDS011;33483;48.294;16.388;2022-10-16T12:40:35;45.28;;;33.85;;
47725;SDS011;33483;48.294;16.388;2022-10-16T12:48:46;45.45;;;32.03;;
47725;SDS011;33483;48.294;16.388;2022-10-16T12:54:00;44.80;;;32.90;;
47725;SDS011;33483;48.294;16.388;2022-10-16T12:59:57;44.95;;;34.17;;
47725;SDS011;33483;48.294;16.388;2022-10-16T13:16:03;50.00;;;33.67;;
47725;SDS011;33483;48.294;16.388;2022-10-16T13:29:30;41.72;;;31.90;;
47725;SDS011;33483;48.294;16.388;2022-10-16T13:32:01;47.38;;;33.60;;
47725;SDS011;33483;48.294;16.388;2022-10-16T13:34:43;43.42;;;32.47;;
47725;SDS011;33483;48.294;16.388;2022-10-16T13:37:19;38.25;;;30.48;;
47725;SDS011;33483;48.294;16.388;2022-10-16T13:39:47;41.83;;;30.88;;
47725;SDS011;33483;48.294;16.388;2022-10-16T13:42:23;41.08;;;31.20;;
47725;SDS011;33483;48.294;16.388;2022-10-16T13:44:54;41.30;;;29.52;;
47725;SDS011;33483;48.294;16.388;2022-10-16T13:47:26;49.13;;;31.75;;
47725;SDS011;33483;48.294;16.388;2022-10-16T13:50:00;39.78;;;29.83;;
47725;SDS011;33483;48.294;16.388;2022-10-16T13:52:29;40.13;;;29.55;;
47725;SDS011;33483;48.294;16.388;2022-10-16T13:54:56;36.15;;;28.88;;
47725;SDS011;33483;48.294;16.388;2022-10-16T13:57:31;37.30;;;28.85;;
47725;SDS011;33483;48.294;16.388;2022-10-16T13:59:58;41.70;;;28.75;;
47725;SDS011;33483;48.294;16.388;2022-10-16T14:02:26;38.92;;;28.38;;
47725;SDS011;33483;48.294;16.388;2022-10-16T14:04:54;36.05;;;28.00;;
47725;SDS011;33483;48.294;16.388;2022-10-16T14:07:25;37.95;;;27.40;;
47725;SDS011;33483;48.294;16.388;2022-10-16T14:09:55;38.95;;;27.33;;
47725;SDS011;33483;48.294;16.388;2022-10-16T14:12:24;39.20;;;28.33;;
47725;SDS011;33483;48.294;16.388;2022-10-16T14:14:54;35.42;;;26.27;;
47725;SDS011;33483;48.294;16.388;2022-10-16T14:17:24;34.88;;;26.90;;
47725;SDS011;33483;48.294;16.388;2022-10-16T14:19:55;36.72;;;26.60;;
47725;SDS011;33483;48.294;16.388;2022-10-16T14:22:38;37.63;;;27.35;;
47725;SDS011;33483;48.294;16.388;2022-10-16T14:30:32;38.40;;;26.77;;
47725;SDS011;33483;48.294;16.388;2022-10-16T14:33:05;40.13;;;27.88;;
47725;SDS011;33483;48.294;16.388;2022-10-16T14:35:46;34.03;;;25.40;;
47725;SDS011;33483;48.294;16.388;2022-10-16T14:38:32;33.83;;;25.30;;
47725;SDS011;33483;48.294;16.388;2022-10-16T14:41:00;37.80;;;25.88;;
47725;SDS011;33483;48.294;16.388;2022-10-16T14:46:07;31.98;;;24.85;;
47725;SDS011;33483;48.294;16.388;2022-10-16T14:48:43;32.83;;;25.37;;
47725;SDS011;33483;48.294;16.388;2022-10-16T14:51:18;34.65;;;25.77;;
47725;SDS011;33483;48.294;16.388;2022-10-16T14:53:46;32.35;;;24.33;;
47725;SDS011;33483;48.294;16.388;2022-10-16T14:56:18;33.08;;;25.42;;
47725;SDS011;33483;48.294;16.388;2022-10-16T14:58:47;33.00;;;24.42;;
47725;SDS011;33483;48.294;16.388;2022-10-16T15:01:15;34.58;;;25.92;;
47725;SDS011;33483;48.294;16.388;2022-10-16T15:03:42;34.05;;;25.38;;
47725;SDS011;33483;48.294;16.388;2022-10-16T15:06:13;34.28;;;25.92;;
47725;SDS011;33483;48.294;16.388;2022-10-16T15:08:44;34.65;;;25.52;;
47725;SDS011;33483;48.294;16.388;2022-10-16T15:11:12;39.90;;;24.58;;
47725;SDS011;33483;48.294;16.388;2022-10-16T15:13:42;33.00;;;23.67;;
47725;SDS011;33483;48.294;16.388;2022-10-16T15:16:13;32.80;;;24.52;;
47725;SDS011;33483;48.294;16.388;2022-10-16T15:18:42;31.75;;;23.42;;
47725;SDS011;33483;48.294;16.388;2022-10-16T15:23:57;34.22;;;24.83;;
47725;SDS011;33483;48.294;16.388;2022-10-16T15:26:25;33.92;;;24.33;;
47725;SDS011;33483;48.294;16.388;2022-10-16T15:28:53;35.45;;;23.65;;
47725;SDS011;33483;48.294;16.388;2022-10-16T15:31:23;30.77;;;23.75;;
47725;SDS011;33483;48.294;16.388;2022-10-16T15:33:51;34.78;;;25.00;;
47725;SDS011;33483;48.294;16.388;2022-10-16T15:36:29;31.25;;;23.45;;
47725;SDS011;33483;48.294;16.388;2022-10-16T15:39:00;37.88;;;24.83;;
47725;SDS011;33483;48.294;16.388;2022-10-16T15:41:30;33.75;;;24.15;;
47725;SDS011;33483;48.294;16.388;2022-10-16T15:43:57;36.28;;;24.65;;
47725;SDS011;33483;48.294;16.388;2022-10-16T15:46:24;33.42;;;23.98;;
47725;SDS011;33483;48.294;16.388;2022-10-16T15:48:52;35.28;;;26.45;;
47725;SDS011;33483;48.294;16.388;2022-10-16T15:51:24;39.20;;;26.20;;
47725;SDS011;33483;48.294;16.388;2022-10-16T15:53:54;36.38;;;25.58;;
47725;SDS011;33483;48.294;16.388;2022-10-16T15:56:21;35.85;;;25.92;;
47725;SDS011;33483;48.294;16.388;2022-10-16T15:58:48;37.08;;;26.55;;
47725;SDS011;33483;48.294;16.388;2022-10-16T16:01:16;41.47;;;27.02;;
47725;SDS011;33483;48.294;16.388;2022-10-16T16:03:43;38.90;;;28.08;;
47725;SDS011;33483;48.294;16.388;2022-10-16T16:06:13;37.75;;;27.88;;
47725;SDS011;33483;48.294;16.388;2022-10-16T16:08:41;40.38;;;29.77;;
47725;SDS011;33483;48.294;16.388;2022-10-16T16:11:09;40.03;;;27.95;;
47725;SDS011;33483;48.294;16.388;2022-10-16T16:13:38;46.13;;;30.25;;
47725;SDS011;33483;48.294;16.388;2022-10-16T16:16:16;39.35;;;28.90;;
47725;SDS011;33483;48.294;16.388;2022-10-16T16:18:47;37.88;;;29.65;;
47725;SDS011;33483;48.294;16.388;2022-10-16T16:21:16;41.55;;;30.05;;
47725;SDS011;33483;48.294;16.388;2022-10-16T16:23:43;42.00;;;30.70;;
47725;SDS011;33483;48.294;16.388;2022-10-16T16:26:14;38.50;;;29.90;;
47725;SDS011;33483;48.294;16.388;2022-10-16T16:28:41;42.33;;;30.90;;
47725;SDS011;33483;48.294;16.388;2022-10-16T16:31:10;43.63;;;30.25;;
47725;SDS011;33483;48.294;16.388;2022-10-16T16:33:37;43.60;;;29.90;;
47725;SDS011;33483;48.294;16.388;2022-10-16T16:36:09;43.00;;;30.35;;
47725;SDS011;33483;48.294;16.388;2022-10-16T16:38:41;41.95;;;30.48;;
47725;SDS011;33483;48.294;16.388;2022-10-16T16:41:17;40.35;;;30.38;;